Columbus, IN (47201)

4:01 PM EDT on August 26, 2016 (GMT -0400)
Jackson St. | | Change Station
Active Advisory: Areal Flood Advisory

Elev 627 ft 39.21 °N, 85.92 °W | Updated 16 seconds ago

Overcast
Overcast
90.4 °F
Feels Like 101 °F
N
9.0
Wind Variable Wind from NNW
Gusts 10.0 mph

Today
High -- | Low -- °F
--% Chance of Precip.
Yesterday
High -- | Low -- °F
Precip. -- in
Pressure 30.08 in
Visibility 10.0 miles
Clouds Scattered Clouds 3800 ft
Scattered Clouds 5000 ft
Overcast 9500 ft
Heat Index 101 °F
Dew Point 75 °F
Humidity 61%
Rainfall 0.00 in
Snow Depth Not available.
7:07 AM 8:22 PM
Waning Crescent, 31% visible
METAR KBAK 261945Z 00000KT 10SM SCT038 SCT050 OVC095 29/25 A3008
Pressure 30.08 in
Visibility 10.0 miles
Clouds Scattered Clouds 3800 ft
Scattered Clouds 5000 ft
Overcast 9500 ft
Heat Index 101 °F
Dew Point 75 °F
Humidity 61%
Rainfall 0.00 in
Snow Depth Not available.
7:07 AM 8:22 PM
Waning Crescent, 31% visible
METAR KBAK 261945Z 00000KT 10SM SCT038 SCT050 OVC095 29/25 A3008

10-Day Weather Forecast

Almanac

Astronomy

Aug. 26, 2016 Rise Set
Actual Time
Civil Twilight
Nautical Twilight
Astronomical Twilight
Moon
Length of Visible Light
Length of Day
Tomorrow will be .
, % of the Moon is Illuminated

Today's Extremes

State Highs State Lows

Community

WunderPhotos

Upload Photos

1,935,191 photos uploaded!

WunderBlog® & News

Nearby

Air Quality

  Air Quality AQ Index Pollutant
Not available.

Snow Depth

Station Depth Elevation

Earthquake Activity

City Distance Mag. Time & Date
Minimum magnitude displayed is 2.5.

Coastal Water Temperatures

Place Temperature

Stations

Nearby Weather Stations

Station Location Temp. Windchill Dew Point Humidity Wind Precip. Elev Updated Type
                   

Watches & Warnings

Areal Flood Advisory
Issued: 3:56 PM EDT Aug. 26, 2016 – National Weather Service

The National Weather Service in Indianapolis has issued a

* Flood Advisory for...
southeastern Johnson County in central Indiana...
northwestern Bartholomew County in central Indiana...

* until 700 PM EDT

* at 355 PM EDT... Doppler radar indicated heavy rain due to nearly
stationary thunderstorms... with estimates of 1.5 to 2 inches
having fallen since 230 PM. This will cause minor flooding in the
advisory area.

* Some locations that will experience flooding include...
Edinburgh... Princes Lakes and Taylorsville.

Precautionary/preparedness actions...

Turn around... don't drown when encountering flooded roads. Most flood
deaths occur in vehicles.


Lat... Lon 3931 8609 3934 8608 3934 8610 3943 8611
      3946 8595 3936 8595 3928 8596


Ryan